Aviation Digital Data Service (ADDS)

Output produced by METARs form (0545 UTC 27 January 2015)
found at http://aviationweather.gov/adds/metars/
 
KJAX 270520Z 2706/2806 29011G17KT P6SM SKC 
     FM270800 28007KT P6SM SCT050 WS015/30035KT 
     FM271400 27011G18KT P6SM SCT045 
     FM271800 28014G24KT P6SM BKN040 
     FM272300 30007KT P6SM SCT050